createdAt,value
2022-09-27T00:01:19.245Z,61.13
2022-09-27T00:03:45.592Z,61.23
2022-09-27T00:06:11.819Z,61.11
2022-09-27T00:08:38.143Z,61.02
2022-09-27T00:11:05.493Z,61.10
2022-09-27T00:13:31.814Z,61.37
2022-09-27T00:16:01.762Z,61.32
2022-09-27T00:18:28.414Z,61.27
2022-09-27T00:20:54.764Z,61.21
2022-09-27T00:23:21.098Z,61.32
2022-09-27T00:25:56.987Z,61.36
2022-09-27T00:28:23.336Z,61.39
2022-09-27T00:30:49.736Z,61.26
2022-09-27T00:33:16.078Z,61.15
2022-09-27T00:35:42.421Z,61.41
2022-09-27T00:38:08.752Z,61.41
2022-09-27T00:40:35.193Z,61.40
2022-09-27T00:43:01.544Z,61.30
2022-09-27T00:45:27.983Z,61.50
2022-09-27T00:47:54.304Z,61.65
2022-09-27T00:50:25.169Z,61.62
2022-09-27T00:52:55.312Z,61.50
2022-09-27T00:55:25.898Z,61.56
2022-09-27T00:57:52.243Z,61.40
2022-09-27T01:00:18.574Z,61.76
2022-09-27T01:02:46.147Z,61.54
2022-09-27T01:05:12.526Z,61.50
2022-09-27T01:07:38.840Z,61.64
2022-09-27T01:10:05.292Z,61.44
2022-09-27T01:12:34.266Z,61.62
2022-09-27T01:15:19.486Z,61.48
2022-09-27T01:17:52.133Z,61.61
2022-09-27T01:20:29.155Z,61.77
2022-09-27T01:23:01.610Z,61.56
2022-09-27T01:25:33.666Z,61.56
2022-09-27T01:28:20.007Z,61.48
2022-09-27T01:30:58.848Z,61.70
2022-09-27T01:33:37.270Z,61.67
2022-09-27T01:36:21.701Z,61.72
2022-09-27T01:38:56.235Z,61.52
2022-09-27T01:41:26.752Z,61.80
2022-09-27T01:44:22.896Z,61.77
2022-09-27T01:46:54.867Z,61.52
2022-09-27T01:49:54.278Z,61.59
2022-09-27T01:52:22.130Z,61.75
2022-09-27T01:54:50.599Z,61.76
2022-09-27T01:57:36.478Z,61.82
2022-09-27T02:00:08.914Z,61.61
2022-09-27T02:02:45.118Z,61.61
2022-09-27T02:05:43.038Z,61.46
2022-09-27T02:08:42.507Z,61.53
2022-09-27T02:11:18.840Z,61.71
2022-09-27T02:13:54.478Z,61.67
2022-09-27T02:16:50.824Z,61.59
2022-09-27T02:19:39.523Z,61.61
2022-09-27T02:22:24.766Z,61.84
2022-09-27T02:24:53.868Z,61.57
2022-09-27T02:27:40.430Z,61.63
2022-09-27T02:30:11.920Z,61.48
2022-09-27T02:32:39.627Z,61.75
2022-09-27T02:35:13.919Z,61.72
2022-09-27T02:37:40.562Z,61.63
2022-09-27T02:40:07.240Z,61.54
2022-09-27T02:42:33.742Z,61.69
2022-09-27T02:45:00.231Z,61.63
2022-09-27T02:47:29.156Z,61.56
2022-09-27T02:50:08.023Z,61.42
2022-09-27T02:53:00.579Z,61.60
2022-09-27T02:55:41.546Z,61.44
2022-09-27T02:58:38.962Z,61.51
2022-09-27T03:01:18.999Z,61.49
2022-09-27T03:04:04.525Z,61.57
2022-09-27T03:06:30.881Z,61.53
2022-09-27T03:08:57.208Z,61.36
2022-09-27T03:11:23.700Z,61.70
2022-09-27T03:14:07.919Z,61.39
2022-09-27T03:16:37.712Z,61.65
2022-09-27T03:19:13.421Z,61.55
2022-09-27T03:22:05.808Z,61.44
2022-09-27T03:24:32.183Z,61.46
2022-09-27T03:26:58.789Z,61.48
2022-09-27T03:29:25.148Z,61.43
2022-09-27T03:32:00.120Z,61.55
2022-09-27T03:34:41.141Z,61.63
2022-09-27T03:37:08.294Z,61.56
2022-09-27T03:39:34.649Z,61.41
2022-09-27T03:42:01.020Z,61.38
2022-09-27T03:44:27.378Z,61.67
2022-09-27T03:46:53.867Z,61.66
2022-09-27T03:49:20.214Z,61.61
2022-09-27T03:51:46.562Z,61.57
2022-09-27T03:54:12.901Z,61.46
2022-09-27T03:56:39.227Z,61.23
2022-09-27T03:59:05.725Z,61.31
2022-09-27T04:01:52.092Z,61.32
2022-09-27T04:04:38.426Z,61.35
2022-09-27T04:07:04.766Z,61.74
2022-09-27T04:09:31.158Z,61.27
2022-09-27T04:12:00.369Z,61.58
2022-09-27T04:14:26.702Z,61.48
2022-09-27T04:17:25.723Z,61.64
2022-09-27T04:20:10.808Z,61.48
2022-09-27T04:22:40.262Z,61.42
2022-09-27T04:25:06.943Z,61.51
2022-09-27T04:27:37.642Z,61.64
2022-09-27T04:30:04.110Z,61.31
2022-09-27T04:32:52.273Z,61.35
2022-09-27T04:35:55.705Z,61.77
2022-09-27T04:38:23.949Z,61.48
2022-09-27T04:40:50.872Z,62.75
2022-09-27T04:43:17.448Z,62.69
2022-09-27T04:45:44.126Z,62.28
2022-09-27T04:48:10.567Z,63.49
2022-09-27T04:50:39.750Z,62.39
2022-09-27T04:53:06.379Z,62.92
2022-09-27T04:55:32.855Z,62.90
2022-09-27T04:58:01.611Z,60.43
2022-09-27T05:00:29.104Z,61.02
2022-09-27T05:03:03.864Z,60.29
2022-09-27T05:05:41.197Z,59.31
2022-09-27T05:08:07.711Z,59.19
2022-09-27T05:10:53.548Z,59.57
2022-09-27T05:13:20.240Z,59.29
2022-09-27T05:15:46.592Z,59.54
2022-09-27T05:18:39.079Z,59.73
2022-09-27T05:21:31.890Z,57.99
2022-09-27T05:23:58.580Z,57.09
2022-09-27T05:26:25.019Z,56.58
2022-09-27T05:28:51.427Z,56.66
2022-09-27T05:31:17.940Z,56.83
2022-09-27T05:33:44.370Z,57.03
2022-09-27T05:36:31.093Z,57.40
2022-09-27T05:38:57.502Z,57.58
2022-09-27T05:41:25.600Z,57.74
2022-09-27T05:43:52.634Z,57.79
2022-09-27T05:46:18.974Z,58.14
2022-09-27T05:48:47.360Z,58.12
2022-09-27T05:51:14.332Z,58.26
2022-09-27T05:53:40.763Z,58.07
2022-09-27T05:56:13.962Z,59.61
2022-09-27T05:59:09.618Z,58.50
2022-09-27T06:01:55.964Z,58.82
2022-09-27T06:04:40.807Z,59.22
2022-09-27T06:07:30.924Z,58.98
2022-09-27T06:09:57.397Z,59.09
2022-09-27T06:12:23.727Z,59.00
2022-09-27T06:14:50.077Z,59.19
2022-09-27T06:17:28.961Z,59.20
2022-09-27T06:19:55.505Z,59.18
2022-09-27T06:22:23.379Z,59.40
2022-09-27T06:24:58.190Z,59.31
2022-09-27T06:27:27.433Z,59.64
2022-09-27T06:29:58.757Z,59.86
2022-09-27T06:32:37.952Z,59.60
2022-09-27T06:35:31.068Z,59.43
2022-09-27T06:37:57.673Z,59.96
2022-09-27T06:40:27.317Z,60.06
2022-09-27T06:43:13.455Z,60.20
2022-09-27T06:46:05.756Z,60.66
2022-09-27T06:48:52.920Z,60.40
2022-09-27T06:51:20.192Z,60.83
2022-09-27T06:53:48.497Z,60.89
2022-09-27T06:56:14.899Z,60.85
2022-09-27T06:59:05.896Z,60.73
2022-09-27T07:01:41.269Z,60.85
2022-09-27T07:04:26.194Z,60.41
2022-09-27T07:07:10.189Z,60.57
2022-09-27T07:09:40.624Z,60.54
2022-09-27T07:12:07.249Z,60.58
2022-09-27T07:14:34.654Z,60.61
2022-09-27T07:17:01.847Z,60.83
2022-09-27T07:19:33.391Z,61.13
2022-09-27T07:21:59.760Z,61.22
2022-09-27T07:24:26.123Z,60.97
2022-09-27T07:26:52.580Z,61.13
2022-09-27T07:29:20.946Z,61.24
2022-09-27T07:31:48.879Z,61.61
2022-09-27T07:34:18.208Z,61.91
2022-09-27T07:36:44.840Z,61.64
2022-09-27T07:39:11.775Z,61.64
2022-09-27T07:41:40.334Z,61.87
2022-09-27T07:44:08.107Z,61.69
2022-09-27T07:46:42.494Z,61.77
2022-09-27T07:49:21.248Z,61.46
2022-09-27T07:52:00.997Z,61.54
2022-09-27T07:54:41.220Z,61.31
2022-09-27T07:57:26.209Z,61.30
2022-09-27T07:59:54.224Z,61.32
2022-09-27T08:02:22.578Z,61.56
2022-09-27T08:04:50.565Z,61.52
2022-09-27T08:07:17.556Z,61.55
2022-09-27T08:09:47.499Z,61.35
2022-09-27T08:12:13.880Z,61.36
2022-09-27T08:14:45.017Z,61.23
2022-09-27T08:17:14.445Z,61.12
2022-09-27T08:20:00.231Z,61.18
2022-09-27T08:22:42.709Z,61.13
2022-09-27T08:25:24.350Z,61.18
2022-09-27T08:28:09.693Z,61.12
2022-09-27T08:30:42.754Z,61.00
2022-09-27T08:33:09.110Z,61.12
2022-09-27T08:35:35.475Z,61.10
2022-09-27T08:38:02.484Z,60.63
2022-09-27T08:40:46.674Z,61.57
2022-09-27T08:43:19.446Z,61.17
2022-09-27T08:45:52.109Z,60.89
2022-09-27T08:48:19.477Z,60.08
2022-09-27T08:50:45.924Z,59.79
2022-09-27T08:53:13.577Z,60.50
2022-09-27T08:55:44.757Z,60.93
2022-09-27T08:58:16.244Z,60.17
2022-09-27T09:00:43.393Z,60.36
2022-09-27T09:03:16.305Z,59.54
2022-09-27T09:05:44.075Z,59.86
2022-09-27T09:08:26.074Z,59.24
2022-09-27T09:11:18.487Z,60.24
2022-09-27T09:13:51.241Z,60.89
2022-09-27T09:16:21.059Z,60.98
2022-09-27T09:18:57.424Z,60.70
2022-09-27T09:21:51.925Z,60.01
2022-09-27T09:24:21.627Z,60.07
2022-09-27T09:26:57.954Z,59.57
2022-09-27T09:29:28.109Z,58.25
2022-09-27T09:31:58.454Z,57.58
2022-09-27T09:34:28.568Z,57.58
2022-09-27T09:37:00.117Z,57.62
2022-09-27T09:39:28.098Z,58.13
2022-09-27T09:42:01.604Z,57.66
2022-09-27T09:44:28.820Z,57.26
2022-09-27T09:47:01.273Z,57.13
2022-09-27T09:49:28.978Z,57.40
2022-09-27T09:52:11.163Z,57.43
2022-09-27T09:54:39.940Z,57.54
2022-09-27T09:57:15.457Z,57.33
2022-09-27T09:59:48.079Z,57.28
2022-09-27T10:02:20.636Z,57.10
2022-09-27T10:04:47.123Z,57.40
2022-09-27T10:07:13.458Z,57.29
2022-09-27T10:09:39.838Z,57.40
2022-09-27T10:12:44.219Z,57.61
2022-09-27T10:15:14.006Z,57.60
2022-09-27T10:17:41.541Z,57.54
2022-09-27T10:20:16.729Z,57.84
2022-09-27T10:22:45.237Z,58.46
2022-09-27T10:25:24.504Z,58.03
2022-09-27T10:28:00.072Z,58.03
2022-09-27T10:30:34.104Z,58.70
2022-09-27T10:33:17.304Z,57.63
2022-09-27T10:35:45.743Z,57.02
2022-09-27T10:38:32.494Z,56.59
2022-09-27T10:41:16.411Z,56.36
2022-09-27T10:43:43.094Z,56.23
2022-09-27T10:46:26.155Z,56.45
2022-09-27T10:49:07.961Z,56.17
2022-09-27T10:51:34.324Z,56.59
2022-09-27T10:54:01.573Z,56.66
2022-09-27T10:56:31.564Z,56.82
2022-09-27T10:58:59.928Z,56.93
2022-09-27T11:01:27.615Z,57.20
2022-09-27T11:04:21.431Z,56.83
2022-09-27T11:06:48.369Z,56.43
2022-09-27T11:09:24.293Z,56.66
2022-09-27T11:12:05.361Z,57.00
2022-09-27T11:14:32.950Z,56.82
2022-09-27T11:17:09.994Z,56.74
2022-09-27T11:19:43.471Z,56.30
2022-09-27T11:22:28.582Z,56.61
2022-09-27T11:25:12.759Z,56.85
2022-09-27T11:27:51.561Z,57.14
2022-09-27T11:30:22.137Z,57.42
2022-09-27T11:33:14.957Z,57.60
2022-09-27T11:35:50.665Z,56.60
2022-09-27T11:38:41.201Z,56.33
2022-09-27T11:41:40.154Z,56.18
2022-09-27T11:44:12.863Z,55.81
2022-09-27T11:46:41.895Z,56.17
2022-09-27T11:49:10.727Z,55.92
2022-09-27T11:51:57.035Z,55.68
2022-09-27T11:54:26.635Z,56.36
2022-09-27T11:57:00.645Z,56.05
2022-09-27T11:59:49.301Z,56.07
2022-09-27T12:02:24.816Z,56.06
2022-09-27T12:04:56.335Z,55.23
2022-09-27T12:07:37.294Z,54.88
2022-09-27T12:10:05.180Z,55.14
2022-09-27T12:12:34.400Z,55.51
2022-09-27T12:15:06.735Z,55.18
2022-09-27T12:17:35.888Z,55.41
2022-09-27T12:20:03.616Z,55.39
2022-09-27T12:22:59.660Z,54.92
2022-09-27T12:25:38.253Z,54.50
2022-09-27T12:28:33.274Z,55.10
2022-09-27T12:31:27.405Z,55.27
2022-09-27T12:33:51.646Z,55.44
2022-09-27T12:36:19.327Z,56.56
2022-09-27T12:39:02.161Z,56.42
2022-09-27T12:41:31.889Z,55.96
2022-09-27T12:44:16.067Z,55.77
2022-09-27T12:47:08.582Z,55.96
2022-09-27T12:50:01.006Z,56.34
2022-09-27T12:52:28.729Z,56.01
2022-09-27T12:55:11.109Z,57.20
2022-09-27T12:57:42.104Z,57.53
2022-09-27T13:00:10.298Z,56.91
2022-09-27T13:03:14.848Z,56.33
2022-09-27T13:05:49.190Z,56.20
2022-09-27T13:08:34.671Z,56.17
2022-09-27T13:11:07.869Z,56.71
2022-09-27T13:13:36.705Z,56.36
2022-09-27T13:16:05.046Z,56.80
2022-09-27T13:18:36.066Z,56.64
2022-09-27T13:21:04.214Z,56.49
2022-09-27T13:23:41.680Z,56.79
2022-09-27T13:26:42.186Z,57.34
2022-09-27T13:29:22.272Z,57.28
2022-09-27T13:31:57.914Z,57.24
2022-09-27T13:34:51.840Z,57.40
2022-09-27T13:37:24.049Z,57.40
2022-09-27T13:39:50.403Z,57.46
2022-09-27T13:42:35.302Z,57.52
2022-09-27T13:45:13.782Z,57.40
2022-09-27T13:47:41.331Z,57.31
2022-09-27T13:50:25.140Z,56.87
2022-09-27T13:53:06.105Z,56.88
2022-09-27T13:55:42.806Z,56.66
2022-09-27T13:58:19.555Z,56.70
2022-09-27T14:00:50.670Z,56.90
2022-09-27T14:03:22.838Z,56.65
2022-09-27T14:05:56.953Z,56.58
2022-09-27T14:08:29.427Z,57.01
2022-09-27T14:10:55.919Z,57.19
2022-09-27T14:13:22.624Z,56.95
2022-09-27T14:15:58.965Z,56.79
2022-09-27T14:18:25.444Z,56.61
2022-09-27T14:20:52.199Z,56.69
2022-09-27T14:23:38.510Z,56.75
2022-09-27T14:26:05.727Z,56.43
2022-09-27T14:28:40.303Z,56.75
2022-09-27T14:31:17.585Z,56.78
2022-09-27T14:34:16.454Z,56.66
2022-09-27T14:37:07.246Z,57.05
2022-09-27T14:39:45.862Z,57.14
2022-09-27T14:42:28.524Z,57.48
2022-09-27T14:44:55.941Z,57.01
2022-09-27T14:47:23.089Z,57.04
2022-09-27T14:49:50.079Z,57.20
2022-09-27T14:52:17.753Z,57.37
2022-09-27T14:54:46.769Z,57.25
2022-09-27T14:57:13.251Z,57.37
2022-09-27T14:59:44.471Z,57.25
2022-09-27T15:02:16.123Z,57.55
2022-09-27T15:04:43.800Z,57.60
2022-09-27T15:07:10.146Z,57.44
2022-09-27T15:09:36.894Z,56.82
2022-09-27T15:12:05.119Z,56.93
2022-09-27T15:14:33.274Z,57.06
2022-09-27T15:17:05.885Z,57.07
2022-09-27T15:19:33.191Z,57.04
2022-09-27T15:22:18.271Z,57.03
2022-09-27T15:24:45.226Z,56.49
2022-09-27T15:27:22.054Z,56.74
2022-09-27T15:29:51.756Z,57.06
2022-09-27T15:32:18.614Z,56.97
2022-09-27T15:34:45.087Z,57.13
2022-09-27T15:37:24.940Z,57.15
2022-09-27T15:39:51.305Z,57.21
2022-09-27T15:42:19.481Z,56.55
2022-09-27T15:44:46.541Z,56.69
2022-09-27T15:47:31.906Z,57.15
2022-09-27T15:50:24.675Z,56.78
2022-09-27T15:52:51.719Z,57.06
2022-09-27T15:55:19.301Z,57.11
2022-09-27T15:57:46.165Z,57.10
2022-09-27T16:00:13.221Z,57.52
2022-09-27T16:02:39.540Z,58.00
2022-09-27T16:05:06.002Z,57.97
2022-09-27T16:07:32.361Z,58.01
2022-09-27T16:09:58.666Z,57.72
2022-09-27T16:12:25.311Z,57.92
2022-09-27T16:14:51.655Z,58.05
2022-09-27T16:17:17.975Z,57.91
2022-09-27T16:19:44.273Z,58.16
2022-09-27T16:22:10.667Z,58.32
2022-09-27T16:24:37.058Z,58.12
2022-09-27T16:27:03.882Z,57.21
2022-09-27T16:29:30.309Z,57.98
2022-09-27T16:31:57.029Z,58.10
2022-09-27T16:34:23.397Z,58.25
2022-09-27T16:36:49.907Z,57.91
2022-09-27T16:39:16.301Z,57.98
2022-09-27T16:41:43.485Z,58.23
2022-09-27T16:44:10.857Z,57.60
2022-09-27T16:46:40.433Z,58.11
2022-09-27T16:49:26.914Z,58.19
2022-09-27T16:52:02.462Z,58.07
2022-09-27T16:54:29.251Z,58.35
2022-09-27T16:56:56.045Z,58.25
2022-09-27T16:59:24.680Z,58.10
2022-09-27T17:01:51.259Z,58.09
2022-09-27T17:04:17.712Z,58.36
2022-09-27T17:06:44.162Z,58.04
2022-09-27T17:09:12.022Z,58.32
2022-09-27T17:11:38.397Z,58.14
2022-09-27T17:14:04.730Z,58.25
2022-09-27T17:16:31.120Z,58.29
2022-09-27T17:18:57.453Z,58.70
2022-09-27T17:21:23.814Z,58.10
2022-09-27T17:23:50.167Z,57.82
2022-09-27T17:26:17.785Z,58.00
2022-09-27T17:28:44.167Z,57.91
2022-09-27T17:31:10.971Z,57.98
2022-09-27T17:33:44.394Z,58.34
2022-09-27T17:36:12.142Z,58.01
2022-09-27T17:38:38.691Z,57.90
2022-09-27T17:41:05.874Z,58.17
2022-09-27T17:43:34.020Z,58.03
2022-09-27T17:46:03.883Z,58.58
2022-09-27T17:48:48.991Z,58.29
2022-09-27T17:51:15.377Z,58.34
2022-09-27T17:53:41.748Z,58.74
2022-09-27T17:56:08.074Z,58.21
2022-09-27T17:58:34.375Z,58.95
2022-09-27T18:01:04.245Z,58.48
2022-09-27T18:03:30.918Z,59.04
2022-09-27T18:05:58.161Z,58.94
2022-09-27T18:08:30.372Z,57.10
2022-09-27T18:10:56.753Z,55.92
2022-09-27T18:13:23.068Z,57.04
2022-09-27T18:15:58.407Z,58.02
2022-09-27T18:18:25.071Z,58.05
2022-09-27T18:20:51.405Z,57.80
2022-09-27T18:23:17.702Z,57.75
2022-09-27T18:25:45.026Z,57.84
2022-09-27T18:28:12.253Z,57.87
2022-09-27T18:30:38.627Z,57.96
2022-09-27T18:33:04.942Z,57.98
2022-09-27T18:35:31.327Z,58.00
2022-09-27T18:37:57.638Z,57.48
2022-09-27T18:40:44.446Z,57.13
2022-09-27T18:43:10.257Z,57.42
2022-09-27T18:45:37.930Z,57.48
2022-09-27T18:48:05.135Z,57.39
2022-09-27T18:50:34.702Z,57.69
2022-09-27T18:53:01.049Z,57.47
2022-09-27T18:55:28.386Z,57.40
2022-09-27T18:57:54.712Z,57.30
2022-09-27T19:00:21.357Z,57.51
2022-09-27T19:02:50.334Z,57.60
2022-09-27T19:05:16.695Z,57.73
2022-09-27T19:07:43.005Z,57.28
2022-09-27T19:10:10.340Z,57.51
2022-09-27T19:12:36.674Z,57.56
2022-09-27T19:15:03.027Z,57.21
2022-09-27T19:17:29.359Z,57.08
2022-09-27T19:19:55.669Z,57.19
2022-09-27T19:22:23.197Z,57.04
2022-09-27T19:24:49.514Z,56.97
2022-09-27T19:27:15.817Z,56.90
2022-09-27T19:29:42.129Z,56.61
2022-09-27T19:32:08.433Z,57.41
2022-09-27T19:34:34.744Z,57.30
2022-09-27T19:37:01.049Z,57.49
2022-09-27T19:39:27.370Z,57.34
2022-09-27T19:41:53.711Z,56.75
2022-09-27T19:44:20.038Z,56.57
2022-09-27T19:46:46.456Z,56.46
2022-09-27T19:49:12.817Z,56.54
2022-09-27T19:51:39.154Z,56.31
2022-09-27T19:54:05.523Z,56.48
2022-09-27T19:56:32.318Z,56.40
2022-09-27T19:58:58.663Z,56.44
2022-09-27T20:01:25.143Z,56.51
2022-09-27T20:03:51.874Z,56.45
2022-09-27T20:06:18.954Z,56.49
2022-09-27T20:08:45.345Z,56.51
2022-09-27T20:11:12.491Z,56.42
2022-09-27T20:13:38.802Z,56.41
2022-09-27T20:16:09.277Z,55.96
2022-09-27T20:18:38.465Z,56.08
2022-09-27T20:21:04.862Z,55.78
2022-09-27T20:23:31.531Z,56.13
2022-09-27T20:26:01.463Z,55.76
2022-09-27T20:28:27.947Z,55.51
2022-09-27T20:30:57.994Z,55.70
2022-09-27T20:33:42.511Z,55.49
2022-09-27T20:36:09.637Z,54.59
2022-09-27T20:38:35.953Z,54.50
2022-09-27T20:41:02.301Z,54.48
2022-09-27T20:43:28.641Z,53.85
2022-09-27T20:45:59.450Z,53.77
2022-09-27T20:48:25.809Z,54.04
2022-09-27T20:50:56.611Z,53.38
2022-09-27T20:53:23.274Z,53.79
2022-09-27T20:55:50.723Z,53.58
2022-09-27T20:58:17.043Z,53.97
2022-09-27T21:00:43.619Z,54.11
2022-09-27T21:03:09.964Z,54.08
2022-09-27T21:05:36.310Z,54.35
2022-09-27T21:08:02.638Z,53.74
2022-09-27T21:10:28.972Z,54.00
2022-09-27T21:12:55.344Z,53.86
2022-09-27T21:15:21.648Z,53.70
2022-09-27T21:17:48.029Z,54.09
2022-09-27T21:20:14.340Z,54.51
2022-09-27T21:22:40.704Z,54.40
2022-09-27T21:25:07.198Z,54.01
2022-09-27T21:27:33.526Z,53.99
2022-09-27T21:30:01.082Z,54.69
2022-09-27T21:32:27.642Z,55.01
2022-09-27T21:34:55.594Z,54.67
2022-09-27T21:37:22.418Z,55.37
2022-09-27T21:39:49.740Z,54.42
2022-09-27T21:42:16.125Z,54.90
2022-09-27T21:44:42.437Z,54.85
2022-09-27T21:47:08.851Z,55.15
2022-09-27T21:49:35.276Z,54.68
2022-09-27T21:52:01.585Z,55.26
2022-09-27T21:54:27.914Z,55.33
2022-09-27T21:56:54.224Z,55.22
2022-09-27T21:59:20.535Z,55.32
2022-09-27T22:01:46.951Z,55.27
2022-09-27T22:04:13.304Z,54.93
2022-09-27T22:06:39.610Z,55.88
2022-09-27T22:09:06.837Z,55.50
2022-09-27T22:11:34.126Z,54.54
2022-09-27T22:14:00.561Z,55.01
2022-09-27T22:16:27.088Z,54.59
2022-09-27T22:18:53.946Z,55.11
2022-09-27T22:21:21.338Z,55.18
2022-09-27T22:23:47.701Z,54.79
2022-09-27T22:26:14.797Z,55.24
2022-09-27T22:28:41.373Z,55.27
2022-09-27T22:31:08.259Z,55.30
2022-09-27T22:33:34.661Z,55.38
2022-09-27T22:36:01.006Z,54.74
2022-09-27T22:38:27.325Z,53.69
2022-09-27T22:40:54.524Z,53.42
2022-09-27T22:43:20.904Z,52.74
2022-09-27T22:45:47.223Z,52.55
2022-09-27T22:48:13.560Z,52.74
2022-09-27T22:50:39.870Z,52.27
2022-09-27T22:53:06.670Z,52.32
2022-09-27T22:55:33.013Z,52.31
2022-09-27T22:57:59.344Z,52.38
2022-09-27T23:00:26.029Z,52.12
2022-09-27T23:02:55.562Z,52.01
2022-09-27T23:05:21.881Z,52.09
2022-09-27T23:07:48.811Z,51.99
2022-09-27T23:10:15.139Z,51.84
2022-09-27T23:12:41.456Z,51.82
2022-09-27T23:15:08.063Z,51.79
2022-09-27T23:17:34.379Z,51.98
2022-09-27T23:20:02.122Z,51.86
2022-09-27T23:22:28.663Z,51.58
2022-09-27T23:24:54.990Z,51.69
2022-09-27T23:27:39.811Z,52.02
2022-09-27T23:30:06.171Z,52.00
2022-09-27T23:32:32.550Z,51.93
2022-09-27T23:34:58.861Z,52.20
2022-09-27T23:37:25.191Z,52.16
2022-09-27T23:39:51.618Z,52.07
2022-09-27T23:42:17.959Z,52.18
2022-09-27T23:44:44.296Z,51.91
2022-09-27T23:47:10.609Z,51.92
2022-09-27T23:49:37.026Z,51.90
2022-09-27T23:52:03.742Z,51.66
2022-09-27T23:54:30.782Z,51.74
2022-09-27T23:56:57.125Z,51.79
2022-09-27T23:59:25.150Z,52.09
